createdAt,value
2023-03-20T00:05:58.296Z,13.90
2023-03-20T00:08:26.148Z,13.90
2023-03-20T00:10:54.466Z,13.90
2023-03-20T00:13:26.229Z,13.90
2023-03-20T00:15:53.542Z,13.80
2023-03-20T00:18:23.117Z,13.80
2023-03-20T00:20:50.845Z,13.80
2023-03-20T00:23:18.091Z,13.80
2023-03-20T00:25:46.485Z,13.80
2023-03-20T00:28:48.025Z,13.80
2023-03-20T00:31:26.703Z,13.70
2023-03-20T00:33:56.060Z,13.70
2023-03-20T00:36:23.804Z,13.70
2023-03-20T00:38:51.386Z,13.70
2023-03-20T00:41:25.398Z,13.70
2023-03-20T00:43:55.558Z,13.70
2023-03-20T00:46:22.589Z,13.60
2023-03-20T00:48:50.123Z,13.60
2023-03-20T00:51:17.650Z,13.60
2023-03-20T00:53:44.435Z,13.60
2023-03-20T00:56:35.574Z,13.60
2023-03-20T00:59:03.894Z,13.50
2023-03-20T01:01:32.065Z,13.50
2023-03-20T01:03:59.973Z,13.50
2023-03-20T01:06:33.679Z,13.80
2023-03-20T01:09:02.463Z,13.10
2023-03-20T01:11:38.482Z,13.50
2023-03-20T01:14:14.024Z,13.50
2023-03-20T01:16:40.798Z,13.50
2023-03-20T01:19:09.017Z,13.40
2023-03-20T01:21:36.633Z,13.50
2023-03-20T01:24:03.396Z,13.40
2023-03-20T01:26:32.415Z,13.40
2023-03-20T01:28:59.152Z,13.40
2023-03-20T01:31:25.826Z,13.40
2023-03-20T01:33:52.551Z,13.30
2023-03-20T01:36:22.731Z,13.30
2023-03-20T01:38:57.533Z,13.30
2023-03-20T01:41:26.538Z,13.30
2023-03-20T01:43:53.639Z,13.30
2023-03-20T01:46:32.030Z,13.30
2023-03-20T01:49:05.818Z,13.30
2023-03-20T01:51:33.094Z,13.30
2023-03-20T01:54:08.361Z,13.30
2023-03-20T01:56:44.530Z,13.20
2023-03-20T01:59:26.014Z,13.30
2023-03-20T02:01:52.854Z,13.20
2023-03-20T02:04:23.976Z,13.20
2023-03-20T02:06:51.071Z,13.20
2023-03-20T02:09:17.798Z,13.20
2023-03-20T02:11:45.595Z,13.20
2023-03-20T02:14:12.792Z,13.20
2023-03-20T02:16:39.596Z,13.20
2023-03-20T02:19:09.372Z,13.20
2023-03-20T02:22:09.554Z,13.20
2023-03-20T02:25:03.310Z,13.20
2023-03-20T02:27:51.778Z,12.70
2023-03-20T02:30:49.413Z,13.00
2023-03-20T02:33:42.215Z,13.10
2023-03-20T02:36:34.663Z,13.10
2023-03-20T02:39:15.444Z,13.10
2023-03-20T02:41:58.144Z,13.10
2023-03-20T02:44:27.635Z,13.10
2023-03-20T02:47:04.333Z,13.10
2023-03-20T02:49:39.039Z,13.00
2023-03-20T02:52:17.042Z,13.10
2023-03-20T02:55:14.880Z,13.00
2023-03-20T02:58:12.528Z,13.00
2023-03-20T03:00:47.460Z,13.00
2023-03-20T03:03:24.820Z,13.00
2023-03-20T03:06:09.104Z,13.00
2023-03-20T03:08:40.576Z,13.00
2023-03-20T03:11:08.723Z,13.00
2023-03-20T03:13:49.617Z,13.00
2023-03-20T03:17:32.118Z,12.90
2023-03-20T03:23:50.591Z,12.90
2023-03-20T03:26:25.612Z,12.90
2023-03-20T03:28:56.871Z,12.90
2023-03-20T03:31:25.206Z,12.90
2023-03-20T03:33:56.905Z,12.90
2023-03-20T03:36:34.421Z,12.90
2023-03-20T03:39:23.768Z,12.70
2023-03-20T03:42:12.170Z,12.80
2023-03-20T03:44:45.802Z,12.80
2023-03-20T03:47:25.771Z,13.10
2023-03-20T03:50:08.421Z,12.80
2023-03-20T03:52:36.644Z,12.80
2023-03-20T03:55:06.579Z,12.80
2023-03-20T03:57:40.439Z,12.80
2023-03-20T04:00:09.419Z,12.80
2023-03-20T04:02:36.285Z,12.80
2023-03-20T04:05:03.881Z,12.80
2023-03-20T04:07:30.874Z,12.70
2023-03-20T04:09:57.567Z,12.70
2023-03-20T04:12:29.767Z,12.70
2023-03-20T04:14:56.450Z,12.70
2023-03-20T04:17:23.131Z,12.70
2023-03-20T04:19:49.841Z,12.70
2023-03-20T04:22:16.553Z,12.70
2023-03-20T04:24:43.216Z,12.70
2023-03-20T04:27:09.861Z,12.70
2023-03-20T04:29:39.163Z,12.60
2023-03-20T04:32:06.459Z,12.60
2023-03-20T04:34:33.152Z,12.60
2023-03-20T04:37:01.279Z,12.60
2023-03-20T04:39:28.426Z,12.60
2023-03-20T04:41:55.122Z,12.60
2023-03-20T04:44:21.786Z,12.60
2023-03-20T04:46:48.533Z,12.60
2023-03-20T04:49:15.700Z,12.60
2023-03-20T04:51:42.435Z,12.60
2023-03-20T04:54:09.136Z,12.60
2023-03-20T04:56:35.808Z,12.60
2023-03-20T04:59:02.718Z,12.60
2023-03-20T05:01:29.534Z,12.50
2023-03-20T05:04:01.081Z,12.50
2023-03-20T05:06:28.560Z,12.50
2023-03-20T05:08:55.295Z,12.50
2023-03-20T05:11:22.413Z,12.50
2023-03-20T05:13:49.061Z,12.50
2023-03-20T05:16:16.131Z,12.50
2023-03-20T05:18:42.859Z,12.50
2023-03-20T05:21:09.581Z,12.50
2023-03-20T05:23:36.622Z,12.50
2023-03-20T05:26:04.096Z,12.50
2023-03-20T05:28:31.062Z,12.40
2023-03-20T05:30:57.816Z,12.40
2023-03-20T05:33:24.638Z,12.40
2023-03-20T05:35:51.493Z,12.50
2023-03-20T05:38:22.609Z,12.40
2023-03-20T05:40:50.327Z,12.40
2023-03-20T05:43:17.032Z,12.40
2023-03-20T05:45:43.830Z,12.40
2023-03-20T05:48:10.772Z,12.40
2023-03-20T05:50:37.473Z,12.40
2023-03-20T05:53:04.185Z,12.40
2023-03-20T05:55:31.031Z,12.40
2023-03-20T05:57:57.739Z,12.30
2023-03-20T06:00:24.660Z,12.30
2023-03-20T06:02:51.433Z,12.30
2023-03-20T06:05:18.175Z,12.30
2023-03-20T06:07:44.839Z,12.30
2023-03-20T06:10:11.781Z,12.30
2023-03-20T06:12:38.963Z,12.20
2023-03-20T06:15:06.483Z,12.20
2023-03-20T06:17:33.227Z,11.50
2023-03-20T06:19:59.937Z,12.30
2023-03-20T06:22:26.625Z,12.20
2023-03-20T06:24:55.977Z,12.20
2023-03-20T06:27:24.208Z,12.20
2023-03-20T06:29:51.057Z,12.20
2023-03-20T06:32:18.437Z,12.10
2023-03-20T06:34:45.199Z,12.20
2023-03-20T06:37:11.885Z,12.10
2023-03-20T06:39:38.583Z,12.20
2023-03-20T06:42:05.389Z,12.20
2023-03-20T06:44:32.044Z,12.20
2023-03-20T06:46:58.894Z,12.20
2023-03-20T06:49:25.584Z,12.20
2023-03-20T06:51:52.751Z,12.10
2023-03-20T06:54:19.469Z,12.20
2023-03-20T06:56:46.660Z,12.20
2023-03-20T06:59:13.992Z,12.10
2023-03-20T07:01:40.842Z,12.10
2023-03-20T07:04:07.643Z,12.10
2023-03-20T07:06:34.825Z,12.10
2023-03-20T07:09:01.707Z,12.10
2023-03-20T07:11:28.726Z,12.10
2023-03-20T07:13:55.930Z,12.20
2023-03-20T07:16:22.684Z,12.20
2023-03-20T07:18:49.378Z,12.20
2023-03-20T07:21:21.000Z,12.20
2023-03-20T07:23:47.951Z,12.30
2023-03-20T07:26:14.842Z,12.30
2023-03-20T07:28:41.520Z,12.30
2023-03-20T07:31:09.580Z,12.30
2023-03-20T07:33:36.269Z,12.30
2023-03-20T07:36:03.184Z,12.30
2023-03-20T07:38:29.924Z,12.30
2023-03-20T07:40:56.582Z,12.30
2023-03-20T07:43:23.301Z,12.30
2023-03-20T07:45:50.056Z,12.30
2023-03-20T07:48:17.249Z,12.30
2023-03-20T07:50:44.050Z,12.30
2023-03-20T07:53:10.692Z,12.30
2023-03-20T07:55:37.705Z,12.40
2023-03-20T07:58:04.779Z,12.40
2023-03-20T08:00:31.673Z,12.40
2023-03-20T08:02:58.855Z,12.40
2023-03-20T08:05:25.939Z,12.40
2023-03-20T08:07:52.940Z,12.50
2023-03-20T08:10:19.798Z,12.50
2023-03-20T08:12:47.395Z,12.40
2023-03-20T08:15:14.595Z,12.50
2023-03-20T08:17:44.335Z,12.50
2023-03-20T08:20:12.277Z,12.50
2023-03-20T08:22:39.162Z,12.60
2023-03-20T08:25:07.426Z,12.60
2023-03-20T08:27:35.315Z,12.60
2023-03-20T08:30:02.130Z,12.60
2023-03-20T08:32:28.801Z,12.60
2023-03-20T08:34:55.753Z,12.70
2023-03-20T08:37:23.285Z,12.70
2023-03-20T08:39:49.950Z,12.70
2023-03-20T08:42:17.105Z,12.70
2023-03-20T08:44:43.901Z,12.70
2023-03-20T08:47:12.206Z,12.90
2023-03-20T08:49:38.968Z,12.80
2023-03-20T08:52:06.045Z,12.90
2023-03-20T08:54:33.857Z,12.80
2023-03-20T08:57:00.723Z,12.90
2023-03-20T08:59:27.558Z,12.90
2023-03-20T09:01:54.252Z,12.90
2023-03-20T09:04:21.144Z,12.90
2023-03-20T09:06:48.038Z,13.00
2023-03-20T09:09:15.975Z,13.00
2023-03-20T09:11:42.760Z,13.00
2023-03-20T09:14:09.773Z,13.10
2023-03-20T09:16:36.506Z,13.10
2023-03-20T09:19:03.669Z,13.10
2023-03-20T09:21:30.493Z,13.10
2023-03-20T09:23:57.137Z,13.20
2023-03-20T09:26:23.819Z,13.30
2023-03-20T09:28:50.608Z,13.30
2023-03-20T09:31:17.340Z,13.40
2023-03-20T09:33:44.032Z,13.40
2023-03-20T09:36:11.886Z,13.50
2023-03-20T09:38:41.785Z,12.20
2023-03-20T09:41:18.671Z,13.60
2023-03-20T09:44:08.004Z,13.60
2023-03-20T09:46:49.629Z,13.70
2023-03-20T09:49:28.944Z,13.80
2023-03-20T09:51:56.214Z,13.80
2023-03-20T09:54:26.034Z,13.90
2023-03-20T09:56:53.176Z,13.90
2023-03-20T09:59:20.670Z,14.00
2023-03-20T10:01:53.240Z,14.10
2023-03-20T10:04:20.350Z,14.10
2023-03-20T10:06:47.167Z,14.20
2023-03-20T10:09:22.608Z,14.20
2023-03-20T10:12:14.665Z,14.30
2023-03-20T10:14:45.120Z,14.40
2023-03-20T10:17:12.007Z,14.40
2023-03-20T10:19:51.799Z,14.50
2023-03-20T10:22:55.358Z,14.50
2023-03-20T10:25:37.847Z,14.60
2023-03-20T10:28:12.335Z,14.60
2023-03-20T10:30:51.032Z,14.70
2023-03-20T10:33:44.611Z,14.70
2023-03-20T10:36:25.428Z,14.70
2023-03-20T10:38:57.853Z,14.80
2023-03-20T10:41:29.251Z,14.80
2023-03-20T10:43:56.286Z,14.90
2023-03-20T10:46:30.682Z,14.90
2023-03-20T10:49:08.937Z,14.90
2023-03-20T10:51:48.535Z,14.90
2023-03-20T10:54:25.221Z,15.00
2023-03-20T10:56:55.889Z,15.00
2023-03-20T10:59:24.304Z,15.00
2023-03-20T11:01:51.224Z,15.00
2023-03-20T11:04:18.114Z,15.00
2023-03-20T11:07:06.543Z,15.00
2023-03-20T11:09:33.225Z,15.10
2023-03-20T11:12:02.373Z,15.10
2023-03-20T11:14:39.592Z,15.10
2023-03-20T11:17:06.843Z,15.10
2023-03-20T11:19:36.081Z,15.20
2023-03-20T11:22:29.454Z,15.20
2023-03-20T11:25:01.389Z,15.20
2023-03-20T11:27:30.436Z,15.20
2023-03-20T11:29:57.941Z,15.20
2023-03-20T11:32:34.051Z,15.20
2023-03-20T11:35:14.998Z,15.30
2023-03-20T11:37:47.727Z,15.30
2023-03-20T11:40:30.476Z,15.40
2023-03-20T11:43:09.384Z,15.40
2023-03-20T11:45:39.092Z,15.40
2023-03-20T11:48:07.239Z,15.40
2023-03-20T11:50:36.601Z,15.50
2023-03-20T11:53:17.362Z,15.50
2023-03-20T11:55:47.138Z,15.50
2023-03-20T11:58:16.562Z,15.50
2023-03-20T12:00:43.348Z,15.50
2023-03-20T12:03:47.570Z,15.50
2023-03-20T12:06:20.408Z,15.60
2023-03-20T12:09:22.748Z,15.60
2023-03-20T12:12:13.817Z,15.40
2023-03-20T12:14:46.022Z,15.60
2023-03-20T12:17:24.926Z,15.70
2023-03-20T12:19:53.468Z,15.70
2023-03-20T12:22:28.811Z,15.70
2023-03-20T12:25:04.287Z,15.80
2023-03-20T12:27:34.704Z,15.80
2023-03-20T12:30:18.295Z,15.80
2023-03-20T12:32:58.568Z,15.80
2023-03-20T12:35:29.554Z,15.80
2023-03-20T12:37:56.698Z,15.80
2023-03-20T12:40:39.685Z,15.80
2023-03-20T12:43:16.124Z,15.90
2023-03-20T12:45:54.438Z,15.90
2023-03-20T12:48:36.079Z,16.00
2023-03-20T12:51:18.724Z,16.00
2023-03-20T12:53:52.139Z,16.00
2023-03-20T12:56:44.923Z,16.10
2023-03-20T12:59:18.094Z,16.10
2023-03-20T13:01:57.850Z,16.10
2023-03-20T13:04:37.609Z,16.10
2023-03-20T13:07:13.765Z,16.20
2023-03-20T13:09:44.950Z,16.20
2023-03-20T13:12:39.332Z,16.20
2023-03-20T13:15:23.346Z,16.30
2023-03-20T13:17:52.960Z,16.30
2023-03-20T13:20:27.569Z,16.30
2023-03-20T13:23:28.307Z,16.30
2023-03-20T13:26:03.893Z,16.30
2023-03-20T13:28:53.504Z,16.40
2023-03-20T13:31:37.089Z,16.40
2023-03-20T13:34:09.512Z,16.40
2023-03-20T13:37:16.051Z,16.40
2023-03-20T13:40:01.968Z,16.50
2023-03-20T13:42:34.997Z,16.60
2023-03-20T13:45:10.225Z,16.60
2023-03-20T13:47:38.056Z,16.70
2023-03-20T13:50:42.739Z,16.70
2023-03-20T13:53:24.391Z,16.80
2023-03-20T13:56:32.197Z,16.90
2023-03-20T13:59:17.429Z,16.90
2023-03-20T14:01:50.914Z,17.00
2023-03-20T14:04:21.220Z,17.00
2023-03-20T14:06:58.572Z,17.10
2023-03-20T14:09:32.846Z,17.10
2023-03-20T14:12:02.823Z,17.10
2023-03-20T14:14:31.353Z,17.10
2023-03-20T14:17:28.064Z,17.20
2023-03-20T14:19:55.872Z,17.20
2023-03-20T14:22:34.603Z,17.20
2023-03-20T14:25:09.165Z,17.30
2023-03-20T14:27:44.335Z,17.30
2023-03-20T14:30:37.503Z,17.30
2023-03-20T14:33:13.399Z,16.70
2023-03-20T14:35:45.612Z,17.40
2023-03-20T14:38:20.854Z,17.40
2023-03-20T14:41:11.966Z,17.40
2023-03-20T14:43:47.768Z,18.40
2023-03-20T14:46:28.929Z,17.50
2023-03-20T14:48:56.376Z,17.50
2023-03-20T14:51:32.537Z,17.50
2023-03-20T14:54:21.093Z,17.50
2023-03-20T14:56:48.940Z,17.50
2023-03-20T14:59:20.565Z,17.50
2023-03-20T15:01:54.853Z,17.50
2023-03-20T15:04:40.136Z,17.50
2023-03-20T15:07:11.380Z,17.60
2023-03-20T15:09:41.285Z,18.50
2023-03-20T15:12:08.056Z,17.50
2023-03-20T15:14:41.649Z,17.50
2023-03-20T15:17:18.340Z,17.60
2023-03-20T15:19:52.785Z,17.60
2023-03-20T15:22:21.772Z,17.50
2023-03-20T15:24:52.975Z,17.50
2023-03-20T15:27:20.645Z,17.50
2023-03-20T15:29:51.777Z,17.50
2023-03-20T15:32:18.569Z,17.50
2023-03-20T15:34:47.439Z,17.50
2023-03-20T15:37:16.424Z,17.50
2023-03-20T15:39:49.334Z,17.50
2023-03-20T15:42:18.307Z,17.50
2023-03-20T15:44:48.082Z,17.50
2023-03-20T15:47:21.371Z,17.40
2023-03-20T15:50:02.753Z,17.40
2023-03-20T15:52:53.322Z,17.40
2023-03-20T15:55:23.734Z,17.30
2023-03-20T15:57:53.410Z,17.30
2023-03-20T16:00:39.896Z,17.40
2023-03-20T16:03:08.800Z,17.30
2023-03-20T16:05:36.135Z,17.30
2023-03-20T16:08:13.935Z,17.30
2023-03-20T16:10:42.748Z,17.30
2023-03-20T16:13:19.086Z,17.20
2023-03-20T16:15:46.503Z,17.20
2023-03-20T16:18:16.113Z,17.20
2023-03-20T16:20:55.061Z,17.20
2023-03-20T16:23:39.402Z,17.20
2023-03-20T16:26:08.287Z,17.10
2023-03-20T16:28:38.520Z,17.10
2023-03-20T16:31:09.593Z,17.10
2023-03-20T16:33:37.715Z,17.10
2023-03-20T16:36:04.991Z,17.10
2023-03-20T16:38:33.867Z,17.10
2023-03-20T16:41:28.836Z,17.00
2023-03-20T16:43:59.206Z,17.00
2023-03-20T16:46:28.152Z,17.00
2023-03-20T16:49:15.388Z,17.00
2023-03-20T16:51:43.584Z,17.00
2023-03-20T16:54:19.996Z,16.90
2023-03-20T16:56:52.707Z,16.90
2023-03-20T16:59:20.084Z,16.80
2023-03-20T17:01:48.519Z,16.80
2023-03-20T17:04:36.410Z,16.80
2023-03-20T17:07:07.522Z,16.80
2023-03-20T17:09:34.578Z,16.70
2023-03-20T17:12:06.181Z,16.70
2023-03-20T17:14:33.004Z,16.70
2023-03-20T17:17:00.333Z,16.60
2023-03-20T17:19:27.132Z,16.60
2023-03-20T17:21:53.910Z,16.60
2023-03-20T17:24:20.600Z,16.50
2023-03-20T17:26:53.538Z,16.50
2023-03-20T17:29:20.325Z,16.50
2023-03-20T17:31:47.094Z,16.40
2023-03-20T17:34:14.992Z,16.40
2023-03-20T17:36:41.826Z,16.40
2023-03-20T17:39:17.448Z,16.40
2023-03-20T17:41:44.247Z,16.40
2023-03-20T17:44:10.956Z,16.30
2023-03-20T17:46:54.007Z,16.30
2023-03-20T17:49:27.075Z,16.30
2023-03-20T17:51:54.548Z,16.30
2023-03-20T17:54:21.482Z,16.20
2023-03-20T17:56:48.208Z,16.20
2023-03-20T17:59:15.128Z,16.20
2023-03-20T18:01:42.659Z,16.10
2023-03-20T18:04:09.418Z,16.10
2023-03-20T18:06:36.973Z,16.10
2023-03-20T18:09:04.863Z,16.10
2023-03-20T18:11:31.919Z,16.00
2023-03-20T18:13:59.786Z,16.40
2023-03-20T18:16:27.172Z,16.10
2023-03-20T18:18:54.445Z,16.00
2023-03-20T18:21:21.234Z,15.90
2023-03-20T18:23:48.219Z,15.90
2023-03-20T18:26:22.351Z,15.90
2023-03-20T18:28:50.511Z,15.90
2023-03-20T18:31:19.137Z,15.90
2023-03-20T18:33:47.789Z,15.80
2023-03-20T18:36:17.138Z,15.80
2023-03-20T18:38:43.927Z,15.80
2023-03-20T18:41:11.667Z,15.80
2023-03-20T18:43:39.653Z,15.70
2023-03-20T18:46:06.863Z,15.70
2023-03-20T18:48:33.925Z,15.70
2023-03-20T18:51:01.887Z,15.70
2023-03-20T18:53:29.793Z,15.70
2023-03-20T18:55:56.632Z,15.60
2023-03-20T18:58:28.860Z,15.60
2023-03-20T19:00:58.050Z,16.30
2023-03-20T19:03:24.869Z,15.50
2023-03-20T19:05:57.485Z,15.50
2023-03-20T19:08:24.224Z,15.50
2023-03-20T19:10:52.119Z,15.50
2023-03-20T19:13:20.459Z,15.50
2023-03-20T19:15:47.455Z,15.50
2023-03-20T19:18:21.274Z,15.50
2023-03-20T19:20:49.935Z,15.40
2023-03-20T19:23:19.499Z,15.40
2023-03-20T19:25:48.135Z,15.40
2023-03-20T19:28:28.798Z,15.40
2023-03-20T19:31:01.719Z,15.30
2023-03-20T19:33:28.351Z,15.30
2023-03-20T19:36:02.964Z,15.30
2023-03-20T19:38:38.706Z,15.30
2023-03-20T19:41:05.809Z,15.20
2023-03-20T19:43:32.582Z,15.20
2023-03-20T19:45:59.579Z,15.20
2023-03-20T19:48:46.196Z,15.20
2023-03-20T19:51:18.432Z,15.20
2023-03-20T19:53:45.979Z,15.20
2023-03-20T19:56:14.070Z,15.10
2023-03-20T19:58:41.054Z,15.10
2023-03-20T20:01:15.032Z,15.10
2023-03-20T20:03:42.458Z,15.10
2023-03-20T20:06:09.812Z,15.00
2023-03-20T20:08:49.112Z,15.00
2023-03-20T20:11:17.827Z,15.00
2023-03-20T20:14:05.228Z,15.00
2023-03-20T20:16:33.938Z,14.90
2023-03-20T20:19:00.811Z,15.10
2023-03-20T20:24:16.062Z,14.90
2023-03-20T20:26:53.389Z,14.90
2023-03-20T20:29:20.916Z,14.90
2023-03-20T20:31:47.931Z,14.90
2023-03-20T20:35:14.866Z,14.80
2023-03-20T20:39:48.723Z,14.80
2023-03-20T20:42:17.073Z,14.80
2023-03-20T20:44:44.230Z,14.80
2023-03-20T20:47:12.200Z,14.70
2023-03-20T20:49:38.968Z,14.70
2023-03-20T20:52:06.366Z,14.70
2023-03-20T20:54:34.107Z,14.70
2023-03-20T20:57:01.225Z,14.60
2023-03-20T20:59:28.184Z,14.60
2023-03-20T21:01:54.982Z,14.60
2023-03-20T21:04:21.765Z,14.60
2023-03-20T21:07:08.797Z,14.60
2023-03-20T21:09:35.257Z,14.60
2023-03-20T21:12:02.813Z,17.20
2023-03-20T21:14:29.664Z,14.50
2023-03-20T21:17:00.764Z,14.50
2023-03-20T21:19:32.698Z,14.50
2023-03-20T21:21:59.367Z,14.50
2023-03-20T21:24:32.744Z,14.50
2023-03-20T21:27:01.198Z,14.50
2023-03-20T21:29:28.017Z,14.50
2023-03-20T21:31:54.757Z,14.50
2023-03-20T21:34:21.874Z,14.40
2023-03-20T21:36:49.336Z,14.40
2023-03-20T21:39:17.200Z,14.40
2023-03-20T21:41:44.299Z,14.40
2023-03-20T21:44:17.081Z,14.40
2023-03-20T21:50:30.825Z,14.40
2023-03-20T21:53:16.866Z,14.30
2023-03-20T21:58:44.315Z,14.30
2023-03-20T22:01:29.469Z,14.30
2023-03-20T22:04:06.305Z,14.20
2023-03-20T22:17:59.597Z,14.10
2023-03-20T22:38:00.489Z,14.00
2023-03-20T22:43:02.324Z,14.00
2023-03-20T22:45:42.106Z,14.00
2023-03-20T22:48:11.655Z,13.90
2023-03-20T22:50:39.825Z,13.90
2023-03-20T22:53:06.499Z,13.90
2023-03-20T22:55:33.215Z,13.90
2023-03-20T22:58:06.794Z,13.90
2023-03-20T23:00:35.720Z,13.80
2023-03-20T23:03:17.189Z,13.80
2023-03-20T23:05:50.017Z,13.80
2023-03-20T23:08:17.128Z,13.80
2023-03-20T23:10:48.729Z,13.80
2023-03-20T23:13:16.397Z,13.70
2023-03-20T23:15:46.588Z,13.60
2023-03-20T23:18:13.823Z,13.60
2023-03-20T23:20:40.934Z,13.60
2023-03-20T23:23:07.692Z,13.50
2023-03-20T23:25:40.782Z,13.50
2023-03-20T23:28:09.141Z,13.50
2023-03-20T23:31:07.421Z,13.50
2023-03-20T23:33:23.265Z,13.50
2023-03-20T23:36:01.223Z,13.50
2023-03-20T23:38:36.120Z,13.50
2023-03-20T23:41:02.874Z,13.50
2023-03-20T23:43:29.827Z,13.50
2023-03-20T23:45:56.581Z,13.50
2023-03-20T23:48:23.686Z,13.50
2023-03-20T23:50:53.349Z,13.50
2023-03-20T23:53:21.277Z,13.50
2023-03-20T23:55:50.196Z,13.40
2023-03-20T23:58:17.439Z,13.50
